KBGR/BGR METAR and TAF weather

Enter ICAO airport designator
Station Type Date Time Source
KBGR METAR 2018/10/19 14:53 UTC NOAA

KBGR 191453Z 19008KT 10SM FEW050 SCT070 07/M03 A3009 RMK AO2 SLP191 T00671028 58017


Station Type Date Time Source
KBGR Decoded METAR 2018/10/19 14:53 UTC NOAA

BANGOR INT'L AIRPORT, ME, United States (KBGR) 44-48N 068-49W 57M
Oct 19, 2018 - 10:53 AM EDT / 2018.10.19 1453 UTC
Wind: from the S (190 degrees) at 9 MPH (8 KT):0
Visibility: 10 mile(s):0
Sky conditions: partly cloudy
Temperature: 44.1 F (6.7 C)
Dew Point: 27.0 F (-2.8 C)
Relative Humidity: 50%
Pressure (altimeter): 30.09 in. Hg (1018 hPa)
Pressure tendency: 0.05 inches (1.7 hPa) lower than three hours ago
ob: KBGR 191453Z 19008KT 10SM FEW050 SCT070 07/M03 A3009 RMK AO2 SLP191 T00671028 58017
cycle: 15

Station Type Date Time Source
KBGR TAF 2018/10/19 12:22 UTC NOAA

TAF KBGR 191120Z 1912/2012 24003KT P6SM OVC070
FM191300 22005KT P6SM OVC050
FM191600 21008KT P6SM BKN100
FM200000 19007KT P6SM SCT110 BKN220
FM200600 22006KT P6SM BKN090


Example: see airport list